Time;durP1;ratioP1;P1;durP2;ratioP2;P2;SDS_P1;SDS_P2;PMS_P1;PMS_P2;Temp;Humidity;BMP_temperature;BMP_pressure;BME280_temperature;BME280_humidity;BME280_pressure;Samples;Min_cycle;Max_cycle;Signal;HPM_P1;HPM_P2
2023/10/23 00:01:24;;;;;;;8.33;5.40;;;;;8.40;100707.00;;;;10598074;27;20218;-71
2023/10/23 00:06:26;;;;;;;11.80;4.80;;;;;8.40;100710.00;;;;10588355;27;20204;-72
2023/10/23 00:11:29;;;;;;;11.30;4.77;;;;;8.30;100718.00;;;;10606806;27;20192;-71
2023/10/23 00:16:30;;;;;;;12.13;4.37;;;;;8.20;100717.00;;;;10590500;27;20249;-71
2023/10/23 00:21:32;;;;;;;10.00;4.63;;;;;8.20;100717.00;;;;10577758;27;20713;-71
2023/10/23 00:26:34;;;;;;;12.67;4.33;;;;;8.20;100717.00;;;;10579917;27;20212;-72
2023/10/23 00:31:36;;;;;;;11.20;4.73;;;;;8.10;100723.00;;;;10582302;27;20223;-71
2023/10/23 00:36:38;;;;;;;15.60;5.07;;;;;8.10;100723.00;;;;10549152;27;20262;-71
2023/10/23 00:41:42;;;;;;;14.37;4.67;;;;;8.00;100724.00;;;;10548996;27;20253;-71
2023/10/23 00:46:45;;;;;;;10.70;4.73;;;;;8.00;100715.00;;;;10561700;27;20236;-72
2023/10/23 00:51:47;;;;;;;13.20;4.60;;;;;8.00;100716.00;;;;10560776;27;20199;-71
2023/10/23 00:56:50;;;;;;;9.97;4.37;;;;;7.90;100718.00;;;;10566345;27;20231;-71
2023/10/23 01:01:53;;;;;;;10.23;4.23;;;;;7.90;100710.00;;;;10582103;27;20200;-69
2023/10/23 01:06:56;;;;;;;13.20;4.10;;;;;7.90;100709.00;;;;10592373;27;20311;-69
2023/10/23 01:11:57;;;;;;;18.03;4.83;;;;;7.80;100718.00;;;;10570416;27;20200;-69
2023/10/23 01:16:59;;;;;;;12.23;3.80;;;;;7.80;100719.00;;;;10576096;27;20276;-71
2023/10/23 01:22:01;;;;;;;13.90;4.70;;;;;7.80;100727.00;;;;10594886;27;20302;-70
2023/10/23 01:27:03;;;;;;;11.53;4.80;;;;;7.80;100721.00;;;;10590426;27;20900;-68
2023/10/23 01:32:05;;;;;;;13.03;4.37;;;;;7.80;100722.00;;;;10572095;27;20248;-69
2023/10/23 01:37:07;;;;;;;15.00;4.47;;;;;7.80;100715.00;;;;10572410;27;20203;-70
2023/10/23 01:42:09;;;;;;;10.90;4.77;;;;;7.80;100713.00;;;;10570327;27;20207;-70
2023/10/23 01:47:12;;;;;;;15.30;4.60;;;;;7.70;100711.00;;;;10569295;27;20235;-69
2023/10/23 01:52:13;;;;;;;11.53;4.17;;;;;7.70;100725.00;;;;10565659;27;20243;-69
2023/10/23 01:57:15;;;;;;;15.93;4.70;;;;;7.60;100720.00;;;;10595176;27;20253;-71
2023/10/23 02:02:17;;;;;;;10.00;4.47;;;;;7.50;100701.00;;;;10585322;27;20870;-70
2023/10/23 02:07:19;;;;;;;13.63;5.43;;;;;7.50;100717.00;;;;10580399;27;20273;-70
2023/10/23 02:12:21;;;;;;;16.97;4.90;;;;;7.50;100703.00;;;;10594298;27;20196;-73
2023/10/23 02:17:24;;;;;;;8.10;4.57;;;;;7.50;100707.00;;;;10566469;27;20207;-73
2023/10/23 02:22:25;;;;;;;8.40;4.10;;;;;7.50;100709.00;;;;10582014;27;20204;-73
2023/10/23 02:27:28;;;;;;;15.23;4.60;;;;;7.50;100707.00;;;;10589156;27;20216;-73
2023/10/23 02:32:30;;;;;;;11.63;4.47;;;;;7.40;100701.00;;;;10574186;27;20204;-73
2023/10/23 02:37:33;;;;;;;9.07;4.43;;;;;7.30;100703.00;;;;10569775;27;20215;-73
2023/10/23 02:42:35;;;;;;;7.83;4.23;;;;;7.30;100708.00;;;;10562955;27;20239;-73
2023/10/23 02:47:37;;;;;;;11.17;4.70;;;;;7.20;100710.00;;;;10571551;27;20784;-73
2023/10/23 02:52:40;;;;;;;9.00;4.20;;;;;7.20;100709.00;;;;10577960;27;20195;-72
2023/10/23 02:57:41;;;;;;;12.73;5.10;;;;;7.20;100707.00;;;;10592564;27;20252;-73
2023/10/23 03:02:44;;;;;;;14.83;4.40;;;;;7.20;100711.00;;;;10574805;27;20212;-73
2023/10/23 03:07:47;;;;;;;16.67;5.33;;;;;7.20;100708.00;;;;10597539;27;20251;-73
2023/10/23 03:12:48;;;;;;;14.43;5.07;;;;;7.30;100706.00;;;;10566747;27;20282;-72
2023/10/23 03:17:51;;;;;;;21.60;5.50;;;;;7.30;100698.00;;;;10578542;27;20200;-73
2023/10/23 03:22:52;;;;;;;16.13;5.30;;;;;7.40;100707.00;;;;10583059;27;20219;-72
2023/10/23 03:27:54;;;;;;;16.07;5.23;;;;;7.40;100713.00;;;;10589597;27;20219;-73
2023/10/23 03:32:56;;;;;;;14.53;5.27;;;;;7.50;100718.00;;;;10571007;27;20202;-73
2023/10/23 03:37:58;;;;;;;16.67;5.27;;;;;7.50;100719.00;;;;10602273;27;20290;-73
2023/10/23 03:43:01;;;;;;;14.70;4.83;;;;;7.50;100732.00;;;;10541364;27;20208;-73
2023/10/23 03:48:03;;;;;;;21.03;5.20;;;;;7.50;100728.00;;;;10562082;27;20960;-73
2023/10/23 03:53:05;;;;;;;22.40;5.83;;;;;7.40;100724.00;;;;10600950;27;20605;-73
2023/10/23 03:58:07;;;;;;;10.57;4.33;;;;;7.40;100722.00;;;;10569638;27;20200;-73
2023/10/23 04:03:11;;;;;;;14.03;5.27;;;;;7.30;100719.00;;;;10572297;27;20290;-72
2023/10/23 04:08:12;;;;;;;18.17;5.27;;;;;7.30;100716.00;;;;10579891;27;20282;-74
2023/10/23 04:13:15;;;;;;;12.77;5.37;;;;;7.30;100715.00;;;;10599113;27;20252;-73
2023/10/23 04:18:17;;;;;;;16.73;5.87;;;;;7.40;100706.00;;;;10575315;27;20808;-74
2023/10/23 04:23:19;;;;;;;17.00;5.50;;;;;7.40;100705.00;;;;10585589;27;20282;-73
2023/10/23 04:28:21;;;;;;;16.97;5.70;;;;;7.30;100706.00;;;;10589737;27;20251;-73
2023/10/23 04:33:24;;;;;;;10.53;4.97;;;;;7.20;100710.00;;;;10565919;27;20362;-69
2023/10/23 04:38:27;;;;;;;14.00;5.23;;;;;7.10;100698.00;;;;10561585;27;20821;-69
2023/10/23 04:43:29;;;;;;;12.70;4.57;;;;;7.10;100694.00;;;;10562422;27;20918;-69
2023/10/23 04:48:31;;;;;;;19.23;6.77;;;;;7.10;100696.00;;;;10575441;27;20219;-69
2023/10/23 04:53:33;;;;;;;10.17;4.87;;;;;7.00;100696.00;;;;10599456;27;20203;-70
2023/10/23 04:58:35;;;;;;;12.87;4.77;;;;;7.00;100698.00;;;;10563155;27;20867;-69
2023/10/23 05:03:37;;;;;;;14.33;4.73;;;;;6.90;100685.00;;;;10571727;28;20205;-69
2023/10/23 05:08:39;;;;;;;13.23;5.93;;;;;6.80;100703.00;;;;10569675;27;20806;-69
2023/10/23 05:13:41;;;;;;;15.10;4.93;;;;;6.70;100694.00;;;;10582655;27;20227;-71
2023/10/23 05:18:43;;;;;;;12.63;6.17;;;;;6.70;100682.00;;;;10591634;27;20689;-69
2023/10/23 05:23:44;;;;;;;17.37;7.30;;;;;6.60;100670.00;;;;10566497;27;20231;-71
2023/10/23 05:28:47;;;;;;;16.30;6.50;;;;;6.50;100667.00;;;;10568525;28;20611;-69
2023/10/23 05:33:50;;;;;;;12.33;6.63;;;;;6.40;100676.00;;;;10597430;27;20260;-70
2023/10/23 05:38:52;;;;;;;9.73;5.63;;;;;6.40;100668.00;;;;10599767;27;20250;-68
2023/10/23 05:43:53;;;;;;;15.53;6.97;;;;;6.40;100670.00;;;;10600248;27;20258;-73
2023/10/23 05:48:55;;;;;;;12.47;6.73;;;;;6.30;100672.00;;;;10600323;27;20690;-73
2023/10/23 05:53:57;;;;;;;14.40;6.43;;;;;6.40;100669.00;;;;10597599;27;20200;-74
2023/10/23 05:58:59;;;;;;;17.00;5.63;;;;;6.50;100675.00;;;;10592480;27;20691;-74
2023/10/23 06:04:01;;;;;;;17.07;6.43;;;;;6.50;100690.00;;;;10584027;27;20196;-73
2023/10/23 06:09:04;;;;;;;15.03;6.30;;;;;6.60;100675.00;;;;10576869;27;20298;-73
2023/10/23 06:14:06;;;;;;;9.77;6.30;;;;;6.70;100680.00;;;;10600281;27;20573;-75
2023/10/23 06:19:08;;;;;;;13.73;6.10;;;;;6.70;100676.00;;;;10600997;27;20204;-74
2023/10/23 06:24:10;;;;;;;16.87;6.97;;;;;6.70;100678.00;;;;10583788;27;20215;-74
2023/10/23 06:29:12;;;;;;;18.80;6.80;;;;;6.70;100677.00;;;;10595766;27;20223;-74
2023/10/23 06:34:14;;;;;;;19.67;6.63;;;;;6.80;100679.00;;;;10596454;27;20222;-74
2023/10/23 06:39:16;;;;;;;12.73;6.73;;;;;6.80;100687.00;;;;10577790;27;20275;-75
2023/10/23 06:44:19;;;;;;;15.27;7.20;;;;;6.80;100690.00;;;;10502427;27;20207;-73
2023/10/23 06:49:21;;;;;;;19.63;6.53;;;;;7.00;100689.00;;;;10516499;27;20223;-74
2023/10/23 06:54:23;;;;;;;11.97;5.90;;;;;7.10;100692.00;;;;10518994;27;20545;-73
2023/10/23 06:59:27;;;;;;;14.30;6.83;;;;;7.30;100694.00;;;;10515371;27;20207;-72
2023/10/23 07:04:29;;;;;;;11.37;5.47;;;;;7.40;100685.00;;;;10516378;27;20203;-73
2023/10/23 07:09:31;;;;;;;11.80;5.93;;;;;7.50;100678.00;;;;10521884;27;20318;-73
2023/10/23 07:14:33;;;;;;;17.07;5.50;;;;;7.60;100679.00;;;;10500407;27;20231;-73
2023/10/23 07:19:35;;;;;;;21.33;5.80;;;;;7.80;100680.00;;;;10495729;27;20284;-72
2023/10/23 07:24:37;;;;;;;11.87;5.47;;;;;7.80;100659.00;;;;10496307;27;20234;-73
2023/10/23 07:29:39;;;;;;;11.80;5.50;;;;;8.00;100671.00;;;;10511415;27;20258;-73
2023/10/23 07:34:41;;;;;;;13.60;6.20;;;;;8.20;100679.00;;;;10497425;27;20211;-73
2023/10/23 07:39:47;;;;;;;13.57;5.60;;;;;8.40;100682.00;;;;10501381;27;20530;-73
2023/10/23 07:44:49;;;;;;;15.63;5.57;;;;;8.60;100684.00;;;;10496722;27;21963;-73
2023/10/23 07:49:51;;;;;;;8.63;5.23;;;;;8.80;100670.00;;;;10507328;27;20231;-73
2023/10/23 07:54:53;;;;;;;9.60;5.67;;;;;8.90;100678.00;;;;10487048;27;20211;-73
2023/10/23 07:59:55;;;;;;;20.63;6.10;;;;;9.00;100675.00;;;;10498348;27;20199;-73
2023/10/23 08:04:56;;;;;;;8.87;5.63;;;;;9.20;100683.00;;;;10465933;27;20243;-72
2023/10/23 08:09:58;;;;;;;14.07;5.43;;;;;9.30;100682.00;;;;10475364;27;20229;-72
2023/10/23 08:15:01;;;;;;;17.80;6.23;;;;;9.50;100682.00;;;;10474146;27;20198;-72
2023/10/23 08:20:04;;;;;;;16.37;6.40;;;;;9.70;100677.00;;;;10494846;27;20206;-72
2023/10/23 08:25:06;;;;;;;14.00;5.63;;;;;9.80;100681.00;;;;10477070;27;20196;-72
2023/10/23 08:30:10;;;;;;;8.90;5.30;;;;;10.00;100672.00;;;;10477630;27;20199;-72
2023/10/23 08:35:12;;;;;;;15.00;5.13;;;;;10.20;100666.00;;;;10498023;27;20281;-73
2023/10/23 08:40:14;;;;;;;10.63;5.00;;;;;10.40;100664.00;;;;10472934;27;20223;-72
2023/10/23 08:45:16;;;;;;;17.60;5.60;;;;;10.50;100653.00;;;;10484363;27;20199;-72
2023/10/23 08:50:19;;;;;;;18.83;6.80;;;;;10.80;100648.00;;;;10485123;27;20286;-72
2023/10/23 08:55:21;;;;;;;16.20;5.57;;;;;11.10;100651.00;;;;10457614;27;20203;-72
2023/10/23 09:00:23;;;;;;;16.30;5.40;;;;;11.40;100651.00;;;;10443537;27;20334;-71
2023/10/23 09:05:25;;;;;;;17.87;6.00;;;;;11.60;100649.00;;;;10484386;27;20256;-72
2023/10/23 09:10:27;;;;;;;19.50;5.67;;;;;11.80;100644.00;;;;10483452;27;20211;-72
2023/10/23 09:15:29;;;;;;;12.67;4.87;;;;;11.90;100643.00;;;;10512803;27;22122;-72
2023/10/23 09:20:31;;;;;;;13.93;4.80;;;;;12.00;100628.00;;;;10490088;27;20201;-73
2023/10/23 09:25:33;;;;;;;13.83;5.20;;;;;12.20;100633.00;;;;10509802;27;20215;-73
2023/10/23 09:30:36;;;;;;;9.67;4.93;;;;;12.40;100633.00;;;;10521229;27;20195;-73
2023/10/23 09:35:37;;;;;;;11.75;5.32;;;;;12.50;100632.00;;;;10516847;27;20294;-73
2023/10/23 09:40:39;;;;;;;15.23;5.13;;;;;12.50;100617.00;;;;10497845;27;20199;-72
2023/10/23 09:45:42;;;;;;;14.65;5.43;;;;;12.60;100610.00;;;;10514197;27;21894;-71
2023/10/23 09:50:47;;;;;;;17.13;6.00;;;;;12.70;100610.00;;;;10512646;27;20917;-72
2023/10/23 09:55:52;;;;;;;14.03;5.63;;;;;12.80;100607.00;;;;10502317;27;20295;-73
2023/10/23 10:00:55;;;;;;;12.57;5.37;;;;;12.90;100595.00;;;;10580509;27;20198;-70
2023/10/23 10:06:10;;;;;;;17.60;5.43;;;;;13.10;100599.00;;;;10535880;27;20920;-73
2023/10/23 10:11:13;;;;;;;12.70;4.47;;;;;13.20;100595.00;;;;10512031;27;20252;-73
2023/10/23 10:16:15;;;;;;;16.10;5.13;;;;;13.30;100595.00;;;;10511098;27;20213;-73
2023/10/23 10:21:21;;;;;;;15.80;4.43;;;;;13.40;100596.00;;;;10488927;27;20233;-73
2023/10/23 10:26:24;;;;;;;14.93;4.85;;;;;13.60;100589.00;;;;10509244;27;20211;-71
2023/10/23 10:31:26;;;;;;;12.18;4.30;;;;;13.60;100561.00;;;;10516387;27;22057;-72
2023/10/23 10:36:29;;;;;;;12.27;4.28;;;;;13.60;100557.00;;;;10484284;27;20382;-70
2023/10/23 10:41:51;;;;;;;14.35;4.70;;;;;13.80;100543.00;;;;10508361;27;22219;-70
2023/10/23 10:46:54;;;;;;;11.60;3.90;;;;;14.00;100534.00;;;;10485471;27;20217;-70
2023/10/23 10:51:57;;;;;;;9.55;4.40;;;;;14.10;100521.00;;;;10502960;27;20191;-70
2023/10/23 10:56:59;;;;;;;9.73;4.32;;;;;14.10;100514.00;;;;10506504;27;20204;-70
2023/10/23 11:02:01;;;;;;;10.13;3.85;;;;;14.20;100506.00;;;;10506430;27;22612;-70
2023/10/23 11:07:03;;;;;;;9.90;4.35;;;;;14.20;100495.00;;;;10487311;27;21006;-70
2023/10/23 11:12:06;;;;;;;10.68;4.65;;;;;14.30;100487.00;;;;10492905;27;20239;-70
2023/10/23 11:17:08;;;;;;;12.02;3.38;;;;;14.30;100472.00;;;;10479314;27;20272;-70
2023/10/23 11:22:13;;;;;;;8.88;3.08;;;;;14.20;100481.00;;;;10506655;27;20226;-70
2023/10/23 11:27:15;;;;;;;8.48;3.58;;;;;14.20;100469.00;;;;10505267;27;20258;-70
2023/10/23 11:32:20;;;;;;;7.68;3.17;;;;;14.20;100445.00;;;;10504873;27;21006;-70
2023/10/23 11:37:21;;;;;;;9.35;2.92;;;;;14.30;100438.00;;;;10482105;27;20203;-69
2023/10/23 11:42:23;;;;;;;7.57;3.28;;;;;14.30;100438.00;;;;10505135;27;20211;-70
2023/10/23 11:47:25;;;;;;;6.38;2.85;;;;;14.30;100425.00;;;;10484356;27;20971;-72
2023/10/23 11:52:27;;;;;;;6.38;2.63;;;;;14.40;100426.00;;;;10501988;27;20213;-70
2023/10/23 11:57:33;;;;;;;7.38;3.75;;;;;14.50;100424.00;;;;10504737;27;20207;-69
2023/10/23 12:02:35;;;;;;;8.40;2.72;;;;;14.50;100420.00;;;;10494288;27;20263;-69
2023/10/23 12:07:41;;;;;;;15.80;2.83;;;;;14.50;100407.00;;;;10490602;27;20216;-70
2023/10/23 12:12:44;;;;;;;8.82;3.13;;;;;14.50;100401.00;;;;10493126;27;20247;-70
2023/10/23 12:17:46;;;;;;;5.70;2.55;;;;;14.50;100388.00;;;;10474968;27;20214;-70
2023/10/23 12:22:50;;;;;;;5.18;2.47;;;;;14.50;100372.00;;;;10481625;27;20304;-70
2023/10/23 12:27:52;;;;;;;8.10;2.63;;;;;14.30;100362.00;;;;10500391;27;20223;-70
2023/10/23 12:32:54;;;;;;;6.85;2.55;;;;;14.20;100364.00;;;;10480250;27;21813;-69
2023/10/23 12:38:16;;;;;;;4.60;2.55;;;;;14.10;100340.00;;;;10478624;27;20206;-70
2023/10/23 12:43:17;;;;;;;8.50;2.53;;;;;14.00;100331.00;;;;10506608;27;20199;-70
2023/10/23 12:48:19;;;;;;;9.75;2.42;;;;;13.90;100326.00;;;;10506746;27;20227;-70
2023/10/23 12:53:21;;;;;;;10.65;3.50;;;;;14.00;100308.00;;;;10489143;27;20305;-72
2023/10/23 12:58:23;;;;;;;10.52;2.95;;;;;14.10;100316.00;;;;10489637;27;20273;-72
2023/10/23 13:03:25;;;;;;;9.88;3.30;;;;;14.20;100302.00;;;;10508500;27;22668;-73
2023/10/23 13:08:27;;;;;;;8.18;2.20;;;;;14.10;100294.00;;;;10506293;27;20222;-73
2023/10/23 13:13:29;;;;;;;12.18;2.72;;;;;14.00;100281.00;;;;10485830;27;21209;-72
2023/10/23 13:18:31;;;;;;;9.13;2.90;;;;;13.70;100268.00;;;;10509271;27;22339;-72
2023/10/23 13:23:35;;;;;;;10.95;3.53;;;;;13.50;100256.00;;;;10504325;27;20211;-73
2023/10/23 13:28:37;;;;;;;10.43;2.97;;;;;13.40;100248.00;;;;10505162;27;21190;-73
2023/10/23 13:33:39;;;;;;;11.05;2.97;;;;;13.30;100241.00;;;;10501609;27;20237;-72
2023/10/23 13:38:41;;;;;;;13.95;3.60;;;;;13.20;100223.00;;;;10504327;27;20213;-73
2023/10/23 13:43:43;;;;;;;11.50;3.63;;;;;13.10;100223.00;;;;10505916;27;20215;-70
2023/10/23 13:48:45;;;;;;;14.18;3.55;;;;;13.00;100204.00;;;;10503795;27;20237;-73
2023/10/23 13:53:47;;;;;;;13.63;3.28;;;;;12.90;100196.00;;;;10503158;27;20230;-73
2023/10/23 13:58:50;;;;;;;12.32;4.38;;;;;12.90;100184.00;;;;10504307;27;21319;-73
2023/10/23 14:03:53;;;;;;;19.30;6.63;;;;;12.90;100174.00;;;;10484349;27;21811;-73
2023/10/23 14:08:55;;;;;;;19.53;7.50;;;;;13.00;100177.00;;;;10482460;27;20215;-73
2023/10/23 14:14:17;;;;;;;14.07;5.03;;;;;13.10;100165.00;;;;10503740;27;20222;-72
2023/10/23 14:19:19;;;;;;;12.07;4.18;;;;;13.10;100165.00;;;;10483876;27;20207;-73
2023/10/23 14:24:39;;;;;;;13.35;4.72;;;;;13.10;100170.00;;;;10501615;27;20202;-73
2023/10/23 14:29:41;;;;;;;12.77;4.97;;;;;13.00;100168.00;;;;10484153;27;20235;-73
2023/10/23 14:34:43;;;;;;;14.13;4.20;;;;;12.90;100173.00;;;;10502212;27;20194;-73
2023/10/23 14:39:45;;;;;;;17.88;4.00;;;;;12.70;100164.00;;;;10508728;27;21101;-73
2023/10/23 14:44:47;;;;;;;14.95;4.78;;;;;12.60;100163.00;;;;10484747;27;20204;-72
2023/10/23 14:49:49;;;;;;;11.43;5.25;;;;;12.40;100163.00;;;;10483596;27;20582;-73
2023/10/23 14:54:54;;;;;;;13.77;6.80;;;;;12.30;100152.00;;;;10494495;27;20324;-73
2023/10/23 14:59:57;;;;;;;18.15;8.38;;;;;12.20;100153.00;;;;10476776;27;20203;-73
2023/10/23 15:04:59;;;;;;;22.67;9.00;;;;;12.10;100141.00;;;;10487383;27;21887;-74
2023/10/23 15:10:01;;;;;;;16.70;9.87;;;;;12.00;100122.00;;;;10519816;27;20276;-75
2023/10/23 15:15:04;;;;;;;14.97;8.73;;;;;11.90;100124.00;;;;10516342;27;20219;-72
2023/10/23 15:20:06;;;;;;;18.03;9.50;;;;;11.80;100113.00;;;;10509943;27;20219;-70
2023/10/23 15:25:08;;;;;;;16.47;8.23;;;;;11.70;100097.00;;;;10577872;27;20228;-70
2023/10/23 15:30:11;;;;;;;15.83;7.30;;;;;11.70;100087.00;;;;10566236;27;20673;-71
2023/10/23 15:35:13;;;;;;;17.17;7.17;;;;;11.70;100091.00;;;;10569725;27;20191;-70
2023/10/23 15:40:16;;;;;;;18.70;7.40;;;;;11.60;100083.00;;;;10592499;27;20187;-70
2023/10/23 15:45:18;;;;;;;12.23;5.97;;;;;11.60;100057.00;;;;10589353;27;20282;-70
2023/10/23 15:50:20;;;;;;;14.03;6.73;;;;;11.50;100062.00;;;;10591586;27;20225;-70
2023/10/23 15:55:22;;;;;;;15.20;7.50;;;;;11.50;100050.00;;;;10572226;27;20201;-71
2023/10/23 16:00:25;;;;;;;15.57;8.03;;;;;11.40;100044.00;;;;10570248;27;20254;-71
2023/10/23 16:05:27;;;;;;;15.30;8.60;;;;;11.40;100030.00;;;;10575806;27;20203;-70
2023/10/23 16:10:29;;;;;;;13.33;7.83;;;;;11.40;100021.00;;;;10559854;27;20247;-70
2023/10/23 16:15:31;;;;;;;16.17;8.13;;;;;11.30;99999.00;;;;10573810;27;20623;-70
2023/10/23 16:20:35;;;;;;;15.17;8.53;;;;;11.30;100005.00;;;;10586369;27;20291;-71
2023/10/23 16:25:41;;;;;;;15.03;9.13;;;;;11.20;99992.00;;;;10575460;27;20257;-72
2023/10/23 16:30:44;;;;;;;19.40;9.83;;;;;11.20;99987.00;;;;10553723;27;20315;-72
2023/10/23 16:35:47;;;;;;;13.77;8.90;;;;;11.10;99986.00;;;;10574822;27;20192;-72
2023/10/23 16:40:51;;;;;;;14.93;9.33;;;;;11.10;99982.00;;;;10582279;27;20283;-72
2023/10/23 16:45:53;;;;;;;14.20;8.87;;;;;11.10;99989.00;;;;10579284;27;20665;-72
2023/10/23 16:50:55;;;;;;;19.60;9.27;;;;;11.00;99995.00;;;;10583422;27;20306;-72
2023/10/23 16:55:58;;;;;;;15.37;8.80;;;;;11.00;99998.00;;;;10561914;28;20287;-72
2023/10/23 17:01:04;;;;;;;17.30;10.27;;;;;11.10;99994.00;;;;10580692;27;20322;-71
2023/10/23 17:06:07;;;;;;;21.57;10.17;;;;;11.00;99990.00;;;;10548766;27;20196;-71
2023/10/23 17:11:10;;;;;;;14.40;9.47;;;;;11.00;99974.00;;;;10572906;27;20219;-72
2023/10/23 17:16:12;;;;;;;18.17;9.83;;;;;11.00;99980.00;;;;10581224;27;20216;-71
2023/10/23 17:21:15;;;;;;;15.03;8.83;;;;;11.00;99981.00;;;;10583719;27;20286;-71
2023/10/23 17:26:16;;;;;;;18.10;9.60;;;;;11.00;99964.00;;;;10575546;27;20264;-72
2023/10/23 17:31:21;;;;;;;15.87;9.50;;;;;11.00;99967.00;;;;10588911;27;20312;-76
2023/10/23 17:36:28;;;;;;;17.43;9.37;;;;;11.00;99956.00;;;;10596600;27;20215;-75
2023/10/23 17:41:30;;;;;;;16.33;9.77;;;;;11.00;99947.00;;;;10579669;27;20391;-74
2023/10/23 17:46:35;;;;;;;16.07;9.70;;;;;11.00;99938.00;;;;10596270;27;20199;-76
2023/10/23 17:51:37;;;;;;;19.07;9.50;;;;;11.00;99929.00;;;;10571854;27;20200;-75
2023/10/23 17:56:40;;;;;;;21.50;8.93;;;;;11.00;99922.00;;;;10595242;27;20269;-75
2023/10/23 18:01:42;;;;;;;16.20;9.93;;;;;11.00;99913.00;;;;10572514;27;20287;-75
2023/10/23 18:06:44;;;;;;;34.33;24.70;;;;;11.00;99903.00;;;;10572041;27;20192;-74
2023/10/23 18:11:46;;;;;;;15.73;10.53;;;;;11.00;99896.00;;;;10601020;27;20199;-75
2023/10/23 18:16:48;;;;;;;16.27;11.80;;;;;11.00;99888.00;;;;10566963;27;20223;-74
2023/10/23 18:21:50;;;;;;;16.47;10.40;;;;;11.00;99879.00;;;;10576627;27;20200;-74
2023/10/23 18:26:52;;;;;;;16.70;11.10;;;;;11.10;99865.00;;;;10598775;27;20211;-74
2023/10/23 18:31:54;;;;;;;22.43;13.33;;;;;11.10;99853.00;;;;10601375;27;20264;-74
2023/10/23 18:36:56;;;;;;;14.60;9.73;;;;;11.10;99843.00;;;;10583288;27;20206;-75
2023/10/23 18:41:58;;;;;;;17.97;12.20;;;;;11.10;99830.00;;;;10570403;27;20211;-73
2023/10/23 18:47:04;;;;;;;24.47;15.63;;;;;11.10;99804.00;;;;10587488;27;20203;-74
2023/10/23 18:52:06;;;;;;;18.50;13.33;;;;;11.10;99790.00;;;;10565208;27;20199;-75
2023/10/23 18:57:08;;;;;;;18.83;11.87;;;;;11.10;99790.00;;;;10587836;27;20543;-75
2023/10/23 19:02:10;;;;;;;18.10;11.20;;;;;11.10;99799.00;;;;10573365;27;20199;-74
2023/10/23 19:07:13;;;;;;;21.67;13.07;;;;;11.10;99793.00;;;;10595509;27;20216;-75
2023/10/23 19:12:15;;;;;;;17.33;12.70;;;;;11.10;99788.00;;;;10575880;27;20191;-75
2023/10/23 19:17:17;;;;;;;23.60;13.20;;;;;11.10;99763.00;;;;10585207;27;20203;-75
2023/10/23 19:22:35;;;;;;;13.60;9.80;;;;;11.10;99787.00;;;;10579493;27;20318;-75
2023/10/23 19:27:37;;;;;;;12.83;9.47;;;;;11.20;99794.00;;;;10574689;27;20264;-75
2023/10/23 19:32:40;;;;;;;64.40;39.73;;;;;11.20;99781.00;;;;10593236;27;20901;-75
2023/10/23 19:37:43;;;;;;;13.30;10.10;;;;;11.20;99771.00;;;;10583879;27;20187;-74
2023/10/23 19:42:49;;;;;;;15.57;10.67;;;;;11.20;99775.00;;;;10594297;27;20282;-74
2023/10/23 19:47:51;;;;;;;16.40;11.33;;;;;11.20;99786.00;;;;10575253;27;20207;-76
2023/10/23 19:52:54;;;;;;;18.73;11.37;;;;;11.20;99776.00;;;;10586828;27;20203;-73
2023/10/23 19:57:56;;;;;;;16.90;12.20;;;;;11.20;99773.00;;;;10595372;27;20294;-73
2023/10/23 20:02:58;;;;;;;20.63;11.47;;;;;11.20;99763.00;;;;10596175;27;20208;-72
2023/10/23 20:08:04;;;;;;;19.63;11.43;;;;;11.20;99760.00;;;;10572569;27;20220;-72
2023/10/23 20:13:06;;;;;;;20.97;15.73;;;;;11.20;99747.00;;;;10570349;27;20636;-72
2023/10/23 20:18:08;;;;;;;14.43;11.93;;;;;11.20;99742.00;;;;10591976;27;20199;-73
2023/10/23 20:23:10;;;;;;;18.20;11.63;;;;;11.20;99750.00;;;;10581135;27;20215;-73
2023/10/23 20:28:12;;;;;;;18.97;13.03;;;;;11.20;99738.00;;;;10575317;27;20311;-73
2023/10/23 20:33:14;;;;;;;18.23;10.80;;;;;11.30;99727.00;;;;10560122;27;20282;-72
2023/10/23 20:38:16;;;;;;;15.30;11.23;;;;;11.30;99735.00;;;;10591872;27;20203;-73
2023/10/23 20:43:17;;;;;;;14.40;9.67;;;;;11.30;99729.00;;;;10588923;27;20207;-73
2023/10/23 20:48:19;;;;;;;14.70;10.27;;;;;11.30;99716.00;;;;10567700;27;20223;-73
2023/10/23 20:53:21;;;;;;;15.60;11.60;;;;;11.30;99718.00;;;;10584704;27;20846;-72
2023/10/23 20:58:23;;;;;;;15.83;12.47;;;;;11.30;99717.00;;;;10574892;27;20199;-73
2023/10/23 21:03:25;;;;;;;21.80;11.77;;;;;11.30;99721.00;;;;10590206;27;20199;-76
2023/10/23 21:08:27;;;;;;;19.97;14.03;;;;;11.30;99715.00;;;;10572732;27;20255;-75
2023/10/23 21:13:29;;;;;;;22.13;17.90;;;;;11.30;99708.00;;;;10572922;27;20279;-75
2023/10/23 21:18:31;;;;;;;18.23;12.57;;;;;11.40;99707.00;;;;10592209;27;20192;-75
2023/10/23 21:23:33;;;;;;;17.67;11.83;;;;;11.40;99700.00;;;;10589686;27;20260;-75
2023/10/23 21:28:35;;;;;;;13.33;10.73;;;;;11.40;99691.00;;;;10595568;27;20211;-76
2023/10/23 21:33:37;;;;;;;16.13;11.27;;;;;11.40;99690.00;;;;10579506;27;20601;-74
2023/10/23 21:38:39;;;;;;;13.43;10.63;;;;;11.40;99683.00;;;;10572862;27;20196;-76
2023/10/23 21:43:40;;;;;;;19.97;11.00;;;;;11.40;99686.00;;;;10588542;27;20203;-76
2023/10/23 21:48:42;;;;;;;15.33;11.03;;;;;11.40;99678.00;;;;10591604;27;20709;-76
2023/10/23 21:53:44;;;;;;;18.13;11.07;;;;;11.40;99667.00;;;;10598814;27;20234;-76
2023/10/23 21:58:47;;;;;;;18.53;10.63;;;;;11.40;99675.00;;;;10584417;27;20225;-74
2023/10/23 22:04:09;;;;;;;16.37;10.77;;;;;11.40;99675.00;;;;10598533;27;20335;-75
2023/10/23 22:09:13;;;;;;;12.53;9.60;;;;;11.40;99678.00;;;;10568043;27;20220;-76
2023/10/23 22:14:15;;;;;;;12.83;8.60;;;;;11.50;99673.00;;;;10586174;27;20569;-74
2023/10/23 22:19:17;;;;;;;11.93;8.80;;;;;11.50;99668.00;;;;10584529;27;20294;-73
2023/10/23 22:24:19;;;;;;;10.33;8.00;;;;;11.50;99672.00;;;;10573973;27;20253;-73
2023/10/23 22:29:21;;;;;;;17.40;8.67;;;;;11.50;99672.00;;;;10588422;27;20273;-73
2023/10/23 22:34:23;;;;;;;11.97;8.13;;;;;11.50;99678.00;;;;10589142;27;20234;-73
2023/10/23 22:39:26;;;;;;;9.90;6.93;;;;;11.50;99677.00;;;;10585779;27;20432;-73
2023/10/23 22:44:27;;;;;;;9.27;6.97;;;;;11.50;99676.00;;;;10574665;27;20246;-74
2023/10/23 22:49:30;;;;;;;14.07;7.50;;;;;11.60;99680.00;;;;10589570;27;20311;-73
2023/10/23 22:54:32;;;;;;;9.43;6.27;;;;;11.60;99678.00;;;;10593536;27;20206;-73
2023/10/23 22:59:34;;;;;;;10.27;5.90;;;;;11.50;99669.00;;;;10569699;27;20203;-73
2023/10/23 23:04:36;;;;;;;8.47;5.83;;;;;11.50;99667.00;;;;10575514;27;20278;-73
2023/10/23 23:09:39;;;;;;;7.53;5.13;;;;;11.50;99684.00;;;;10583991;27;20208;-73
2023/10/23 23:14:42;;;;;;;6.00;4.93;;;;;11.50;99684.00;;;;10558526;27;20196;-73
2023/10/23 23:19:49;;;;;;;8.53;5.13;;;;;11.50;99685.00;;;;10586185;27;20311;-73
2023/10/23 23:24:51;;;;;;;7.27;4.40;;;;;11.50;99694.00;;;;10563609;27;20297;-72
2023/10/23 23:29:53;;;;;;;5.87;4.60;;;;;11.40;99702.00;;;;10586609;27;20232;-72
2023/10/23 23:34:56;;;;;;;6.80;5.00;;;;;11.40;99698.00;;;;10587977;27;20823;-72
2023/10/23 23:39:57;;;;;;;6.90;5.10;;;;;11.40;99710.00;;;;10561636;27;20262;-72
2023/10/23 23:44:59;;;;;;;5.53;4.73;;;;;11.40;99697.00;;;;10576119;27;20208;-72
2023/10/23 23:50:01;;;;;;;7.90;5.67;;;;;11.30;99703.00;;;;10560133;27;20243;-72
2023/10/23 23:55:04;;;;;;;9.20;6.47;;;;;11.30;99712.00;;;;10583490;27;20367;-72
